Time,TemperatureF,DewpointF,PressureIn,WindDirection,WindDirectionDegrees,WindSpeedMPH,WindSpeedGustMPH,Humidity,HourlyPrecipIn,Conditions,Clouds,dailyrainin,SoftwareType,DateUTC
2013-05-26 00:03:00,43.0,34.0,-100.00,WSW,249,1.0,12.0,73,0.00,,,-99.99,,2013-05-26 04:03:00,
2013-05-26 00:12:00,43.0,34.0,-100.00,West,268,1.0,12.0,73,0.00,,,-99.99,,2013-05-26 04:12:00,
2013-05-26 00:23:00,43.0,34.0,-100.00,WSW,245,1.0,12.0,75,0.00,,,-99.99,,2013-05-26 04:23:00,
2013-05-26 00:33:00,43.0,34.0,-100.00,West,262,1.0,1.0,76,0.00,,,-99.99,,2013-05-26 04:33:00,
2013-05-26 00:42:00,41.0,34.0,-100.00,WSW,244,1.0,1.0,76,0.00,,,-99.99,,2013-05-26 04:42:00,
2013-05-26 00:52:00,41.0,36.0,-100.00,WSW,247,0.0,1.0,80,0.00,,,-99.99,,2013-05-26 04:52:00,
2013-05-26 01:02:00,41.0,34.0,-100.00,SSW,194,0.0,1.0,80,0.00,,,-99.99,,2013-05-26 05:02:00,
2013-05-26 01:12:00,40.0,34.0,-100.00,WSW,248,0.0,1.0,81,0.00,,,-99.99,,2013-05-26 05:12:00,
2013-05-26 01:22:00,41.0,36.0,-100.00,WSW,255,0.0,1.0,82,0.00,,,-99.99,,2013-05-26 05:22:00,
2013-05-26 01:32:00,41.0,34.0,-100.00,South,190,0.0,1.0,82,0.00,,,-99.99,,2013-05-26 05:32:00,
2013-05-26 01:42:00,40.0,34.0,-100.00,WSW,247,0.0,1.0,84,0.00,,,-99.99,,2013-05-26 05:42:00,
2013-05-26 01:52:00,40.0,34.0,-100.00,WSW,249,0.0,1.0,84,0.00,,,-99.99,,2013-05-26 05:52:00,
2013-05-26 02:01:00,39.0,34.0,-100.00,WSW,242,0.0,1.0,85,0.00,,,-99.99,,2013-05-26 06:01:00,
2013-05-26 02:12:00,38.0,34.0,-100.00,SSW,211,0.0,1.0,85,0.00,,,-99.99,,2013-05-26 06:12:00,
2013-05-26 02:22:00,40.0,36.0,-100.00,SW,230,0.0,1.0,86,0.00,,,-99.99,,2013-05-26 06:22:00,
2013-05-26 02:32:00,38.0,34.0,-100.00,West,266,0.0,1.0,86,0.00,,,-99.99,,2013-05-26 06:32:00,
2013-05-26 02:42:00,38.0,34.0,-100.00,WSW,252,0.0,1.0,86,0.00,,,-99.99,,2013-05-26 06:42:00,
2013-05-26 02:52:00,38.0,34.0,-100.00,WSW,241,0.0,1.0,86,0.00,,,-99.99,,2013-05-26 06:52:00,
2013-05-26 03:02:00,39.0,36.0,-100.00,West,273,0.0,1.0,88,0.00,,,-99.99,,2013-05-26 07:02:00,
2013-05-26 03:11:00,38.0,34.0,-100.00,WSW,245,0.0,1.0,88,0.00,,,-99.99,,2013-05-26 07:11:00,
2013-05-26 03:22:00,38.0,34.0,-100.00,SW,232,0.0,1.0,88,0.00,,,-99.99,,2013-05-26 07:22:00,
2013-05-26 03:32:00,38.0,34.0,-100.00,WSW,238,0.0,1.0,89,0.00,,,-99.99,,2013-05-26 07:32:00,
2013-05-26 03:42:00,37.0,34.0,-100.00,SSE,158,0.0,1.0,89,0.00,,,-99.99,,2013-05-26 07:42:00,
2013-05-26 03:52:00,38.0,34.0,-100.00,WSW,249,0.0,1.0,90,0.00,,,-99.99,,2013-05-26 07:52:00,
2013-05-26 04:01:00,39.0,36.0,-100.00,WSW,245,0.0,1.0,90,0.00,,,-99.99,,2013-05-26 08:01:00,
2013-05-26 04:12:00,39.0,36.0,-100.00,South,183,0.0,1.0,89,0.00,,,-99.99,,2013-05-26 08:12:00,
2013-05-26 04:21:00,38.0,34.0,-100.00,WNW,286,1.0,1.0,90,0.00,,,-99.99,,2013-05-26 08:21:00,
2013-05-26 04:32:00,38.0,34.0,-100.00,WSW,245,0.0,1.0,90,0.00,,,-99.99,,2013-05-26 08:32:00,
2013-05-26 04:42:00,37.0,34.0,-100.00,West,259,0.0,1.0,90,0.00,,,-99.99,,2013-05-26 08:42:00,
2013-05-26 04:53:00,38.0,34.0,-100.00,SSW,211,0.0,1.0,89,0.00,,,-99.99,,2013-05-26 08:53:00,
2013-05-26 05:01:00,39.0,36.0,-100.00,WSW,237,1.0,1.0,91,0.00,,,-99.99,,2013-05-26 09:01:00,
2013-05-26 05:11:00,36.0,32.0,-100.00,West,261,0.0,1.0,90,0.00,,,-99.99,,2013-05-26 09:11:00,
2013-05-26 05:21:00,37.0,34.0,-100.00,WSW,241,1.0,1.0,91,0.00,,,-99.99,,2013-05-26 09:21:00,
2013-05-26 05:33:00,39.0,36.0,-100.00,WSW,254,1.0,1.0,91,0.00,,,-99.99,,2013-05-26 09:33:00,
2013-05-26 05:43:00,37.0,34.0,-100.00,SSE,159,1.0,1.0,90,0.00,,,-99.99,,2013-05-26 09:43:00,
2013-05-26 05:52:00,39.0,36.0,-100.00,West,276,0.0,1.0,90,0.00,,,-99.99,,2013-05-26 09:52:00,
2013-05-26 06:03:00,38.0,34.0,-100.00,SW,227,1.0,2.0,91,0.00,,,-99.99,,2013-05-26 10:03:00,
2013-05-26 06:12:00,40.0,36.0,-100.00,WSW,254,2.0,2.0,91,0.00,,,-99.99,,2013-05-26 10:12:00,
2013-05-26 06:23:00,39.0,36.0,-100.00,NW,306,1.0,2.0,90,0.00,,,-99.99,,2013-05-26 10:23:00,
2013-05-26 06:33:00,40.0,37.0,-100.00,WSW,244,1.0,2.0,91,0.00,,,-99.99,,2013-05-26 10:33:00,
2013-05-26 06:42:00,39.0,36.0,-100.00,SW,228,1.0,2.0,91,0.00,,,-99.99,,2013-05-26 10:42:00,
2013-05-26 06:52:00,40.0,37.0,-100.00,WSW,248,1.0,2.0,91,0.00,,,-99.99,,2013-05-26 10:52:00,
2013-05-26 07:03:00,41.0,37.0,-100.00,WSW,247,1.0,2.0,91,0.00,,,-99.99,,2013-05-26 11:03:00,
2013-05-26 07:11:00,41.0,37.0,-100.00,WSW,244,1.0,2.0,90,0.00,,,-99.99,,2013-05-26 11:11:00,
2013-05-26 07:22:00,42.0,37.0,-100.00,West,269,2.0,2.0,90,0.00,,,-99.99,,2013-05-26 11:22:00,
2013-05-26 07:32:00,43.0,39.0,-100.00,WSW,247,1.0,2.0,89,0.00,,,-99.99,,2013-05-26 11:32:00,
2013-05-26 07:42:00,43.0,39.0,-100.00,WNW,289,1.0,2.0,88,0.00,,,-99.99,,2013-05-26 11:42:00,
2013-05-26 07:52:00,44.0,39.0,-100.00,WNW,289,1.0,2.0,88,0.00,,,-99.99,,2013-05-26 11:52:00,
2013-05-26 08:02:00,45.0,39.0,-100.00,WNW,282,2.0,2.0,84,0.00,,,-99.99,,2013-05-26 12:02:00,
2013-05-26 08:12:00,46.0,41.0,-100.00,WNW,282,3.0,4.0,82,0.00,,,-99.99,,2013-05-26 12:12:00,
2013-05-26 08:21:00,47.0,39.0,-100.00,WNW,283,3.0,4.0,78,0.00,,,-99.99,,2013-05-26 12:21:00,
2013-05-26 08:32:00,49.0,41.0,-100.00,West,259,4.0,4.0,78,0.00,,,-99.99,,2013-05-26 12:32:00,
2013-05-26 08:42:00,49.0,41.0,-100.00,WSW,249,2.0,4.0,77,0.00,,,-99.99,,2013-05-26 12:42:00,
2013-05-26 08:52:00,49.0,41.0,-100.00,WSW,258,0.0,4.0,76,0.00,,,-99.99,,2013-05-26 12:52:00,
2013-05-26 09:02:00,52.0,41.0,-100.00,NW,323,1.0,4.0,68,0.00,,,-99.99,,2013-05-26 13:02:00,
2013-05-26 09:11:00,53.0,39.0,-100.00,South,180,2.0,4.0,63,0.00,,,-99.99,,2013-05-26 13:11:00,
2013-05-26 09:21:00,52.0,37.0,-100.00,NW,309,2.0,4.0,59,0.00,,,-99.99,,2013-05-26 13:21:00,
2013-05-26 09:32:00,53.0,37.0,-100.00,NW,306,1.0,4.0,58,0.00,,,-99.99,,2013-05-26 13:32:00,
2013-05-26 09:42:00,54.0,37.0,-100.00,WSW,248,1.0,4.0,54,0.00,,,-99.99,,2013-05-26 13:42:00,
2013-05-26 09:52:00,54.0,37.0,-100.00,WNW,286,2.0,4.0,56,0.00,,,-99.99,,2013-05-26 13:52:00,
2013-05-26 10:02:00,54.0,36.0,-100.00,WSW,247,2.0,4.0,53,0.00,,,-99.99,,2013-05-26 14:02:00,
2013-05-26 10:11:00,55.0,37.0,-100.00,East,97,2.0,4.0,54,0.00,,,-99.99,,2013-05-26 14:11:00,
2013-05-26 10:21:00,56.0,36.0,-100.00,SE,124,1.0,4.0,49,0.00,,,-99.99,,2013-05-26 14:21:00,
2013-05-26 10:32:00,56.0,37.0,-100.00,NNE,15,2.0,4.0,53,0.00,,,-99.99,,2013-05-26 14:32:00,
2013-05-26 10:42:00,55.0,37.0,-100.00,NNE,19,2.0,4.0,54,0.00,,,-99.99,,2013-05-26 14:42:00,
2013-05-26 10:52:00,56.0,39.0,-100.00,NW,316,2.0,4.0,54,0.00,,,-99.99,,2013-05-26 14:52:00,
2013-05-26 11:02:00,55.0,36.0,-100.00,NW,309,2.0,4.0,50,0.00,,,-99.99,,2013-05-26 15:02:00,
2013-05-26 11:12:00,56.0,36.0,-100.00,NE,40,2.0,4.0,49,0.00,,,-99.99,,2013-05-26 15:12:00,
2013-05-26 11:22:00,57.0,36.0,-100.00,WSW,238,2.0,4.0,47,0.00,,,-99.99,,2013-05-26 15:22:00,
2013-05-26 11:33:00,57.0,36.0,-100.00,WNW,292,2.0,4.0,47,0.00,,,-99.99,,2013-05-26 15:33:00,
2013-05-26 11:43:00,57.0,34.0,-100.00,WNW,285,2.0,4.0,44,0.00,,,-99.99,,2013-05-26 15:43:00,
2013-05-26 11:53:00,58.0,34.0,-100.00,WNW,296,1.0,4.0,42,0.00,,,-99.99,,2013-05-26 15:53:00,
2013-05-26 12:03:00,57.0,36.0,-100.00,NE,45,3.0,6.0,46,0.00,,,-99.99,,2013-05-26 16:03:00,
2013-05-26 12:12:00,58.0,36.0,-100.00,West,275,1.0,6.0,45,0.00,,,-99.99,,2013-05-26 16:12:00,
2013-05-26 12:23:00,59.0,37.0,-100.00,ESE,105,1.0,6.0,45,0.00,,,-99.99,,2013-05-26 16:23:00,
2013-05-26 12:33:00,59.0,36.0,-100.00,North,0,1.0,6.0,42,0.00,,,-99.99,,2013-05-26 16:33:00,
2013-05-26 12:42:00,60.0,37.0,-100.00,West,280,1.0,6.0,44,0.00,,,-99.99,,2013-05-26 16:42:00,
2013-05-26 12:52:00,59.0,36.0,-100.00,NW,306,3.0,6.0,42,0.00,,,-99.99,,2013-05-26 16:52:00,
2013-05-26 13:02:00,58.0,32.0,-100.00,NNE,33,4.0,6.0,40,0.00,,,-99.99,,2013-05-26 17:02:00,
2013-05-26 13:11:00,59.0,37.0,-100.00,ENE,69,3.0,6.0,45,0.00,,,-99.99,,2013-05-26 17:11:00,
2013-05-26 13:22:00,60.0,37.0,-100.00,NE,42,2.0,6.0,44,0.00,,,-99.99,,2013-05-26 17:22:00,
2013-05-26 13:32:00,60.0,36.0,-100.00,SSE,148,2.0,6.0,42,0.00,,,-99.99,,2013-05-26 17:32:00,
2013-05-26 13:42:00,59.0,36.0,-100.00,NNE,12,2.0,6.0,42,0.00,,,-99.99,,2013-05-26 17:42:00,
2013-05-26 13:52:00,61.0,36.0,-100.00,NE,50,3.0,6.0,41,0.00,,,-99.99,,2013-05-26 17:52:00,
2013-05-26 14:01:00,59.0,34.0,-100.00,WSW,256,2.0,6.0,40,0.00,,,-99.99,,2013-05-26 18:01:00,
2013-05-26 14:12:00,60.0,36.0,-100.00,SE,127,2.0,6.0,42,0.00,,,-99.99,,2013-05-26 18:12:00,
2013-05-26 14:21:00,60.0,36.0,-100.00,North,1,2.0,6.0,42,0.00,,,-99.99,,2013-05-26 18:21:00,
2013-05-26 14:32:00,60.0,36.0,-100.00,ENE,77,2.0,6.0,42,0.00,,,-99.99,,2013-05-26 18:32:00,
2013-05-26 14:42:00,61.0,34.0,-100.00,NE,39,3.0,6.0,37,0.00,,,-99.99,,2013-05-26 18:42:00,
2013-05-26 14:52:00,62.0,32.0,-100.00,SW,214,1.0,6.0,33,0.00,,,-99.99,,2013-05-26 18:52:00,
2013-05-26 15:01:00,61.0,34.0,-100.00,NNE,24,3.0,6.0,36,0.00,,,-99.99,,2013-05-26 19:01:00,
2013-05-26 15:11:00,62.0,32.0,-100.00,ENE,77,2.0,6.0,34,0.00,,,-99.99,,2013-05-26 19:11:00,
2013-05-26 15:22:00,62.0,34.0,-100.00,SSW,210,2.0,6.0,36,0.00,,,-99.99,,2013-05-26 19:22:00,
2013-05-26 15:32:00,62.0,32.0,-100.00,NNW,328,2.0,6.0,34,0.00,,,-99.99,,2013-05-26 19:32:00,
2013-05-26 15:42:00,61.0,32.0,-100.00,East,83,3.0,6.0,32,0.00,,,-99.99,,2013-05-26 19:42:00,
2013-05-26 15:52:00,62.0,32.0,-100.00,ENE,70,2.0,6.0,32,0.00,,,-99.99,,2013-05-26 19:52:00,
2013-05-26 16:02:00,63.0,34.0,-100.00,North,360,4.0,10.0,34,0.00,,,-99.99,,2013-05-26 20:02:00,
2013-05-26 16:11:00,62.0,32.0,-100.00,WNW,302,4.0,10.0,33,0.00,,,-99.99,,2013-05-26 20:11:00,
2013-05-26 16:22:00,63.0,32.0,-100.00,NNW,344,3.0,10.0,32,0.00,,,-99.99,,2013-05-26 20:22:00,
2013-05-26 16:32:00,65.0,32.0,-100.00,West,264,1.0,10.0,31,0.00,,,-99.99,,2013-05-26 20:32:00,
2013-05-26 16:42:00,64.0,32.0,-100.00,WNW,297,2.0,10.0,29,0.00,,,-99.99,,2013-05-26 20:42:00,
2013-05-26 16:52:00,64.0,32.0,-100.00,WNW,290,2.0,10.0,29,0.00,,,-99.99,,2013-05-26 20:52:00,
2013-05-26 17:02:00,64.0,32.0,-100.00,South,177,2.0,10.0,29,0.00,,,-99.99,,2013-05-26 21:02:00,
2013-05-26 17:11:00,65.0,34.0,-100.00,North,358,1.0,10.0,32,0.00,,,-99.99,,2013-05-26 21:11:00,
2013-05-26 17:22:00,64.0,32.0,-100.00,NNW,347,3.0,10.0,31,0.00,,,-99.99,,2013-05-26 21:22:00,
2013-05-26 17:33:00,65.0,32.0,-100.00,NNE,12,1.0,10.0,29,0.00,,,-99.99,,2013-05-26 21:33:00,
2013-05-26 17:43:00,63.0,30.0,-100.00,WNW,293,2.0,10.0,28,0.00,,,-99.99,,2013-05-26 21:43:00,
2013-05-26 17:53:00,65.0,34.0,-100.00,South,184,2.0,10.0,32,0.00,,,-99.99,,2013-05-26 21:53:00,
2013-05-26 18:03:00,63.0,32.0,-100.00,NE,56,2.0,10.0,32,0.00,,,-99.99,,2013-05-26 22:03:00,
2013-05-26 18:12:00,63.0,32.0,-100.00,West,269,2.0,10.0,31,0.00,,,-99.99,,2013-05-26 22:12:00,
2013-05-26 18:23:00,62.0,32.0,-100.00,WNW,288,2.0,10.0,32,0.00,,,-99.99,,2013-05-26 22:23:00,
2013-05-26 18:33:00,64.0,32.0,-100.00,NW,326,2.0,10.0,31,0.00,,,-99.99,,2013-05-26 22:33:00,
2013-05-26 18:42:00,63.0,32.0,-100.00,SSW,206,1.0,10.0,31,0.00,,,-99.99,,2013-05-26 22:42:00,
2013-05-26 18:53:00,62.0,32.0,-100.00,SW,225,2.0,10.0,31,0.00,,,-99.99,,2013-05-26 22:53:00,
2013-05-26 19:02:00,63.0,32.0,-100.00,WSW,241,2.0,10.0,32,0.00,,,-99.99,,2013-05-26 23:02:00,
2013-05-26 19:12:00,63.0,32.0,-100.00,NNE,21,1.0,10.0,33,0.00,,,-99.99,,2013-05-26 23:12:00,
2013-05-26 19:22:00,62.0,32.0,-100.00,West,275,2.0,10.0,33,0.00,,,-99.99,,2013-05-26 23:22:00,
2013-05-26 19:32:00,62.0,32.0,-100.00,WNW,299,1.0,10.0,34,0.00,,,-99.99,,2013-05-26 23:32:00,
2013-05-26 19:43:00,60.0,32.0,-100.00,West,278,1.0,10.0,36,0.00,,,-99.99,,2013-05-26 23:43:00,
2013-05-26 19:52:00,60.0,32.0,-100.00,West,272,2.0,10.0,37,0.00,,,-99.99,,2013-05-26 23:52:00,
2013-05-26 20:02:00,60.0,32.0,-100.00,West,261,1.0,10.0,37,0.00,,,-99.99,,2013-05-27 00:02:00,
2013-05-26 20:11:00,59.0,34.0,-100.00,NNW,347,2.0,10.0,41,0.00,,,-99.99,,2013-05-27 00:11:00,
2013-05-26 20:22:00,58.0,36.0,-100.00,WNW,299,1.0,10.0,44,0.00,,,-99.99,,2013-05-27 00:22:00,
2013-05-26 20:32:00,57.0,36.0,-100.00,WNW,299,2.0,10.0,46,0.00,,,-99.99,,2013-05-27 00:32:00,
2013-05-26 20:42:00,57.0,36.0,-100.00,NW,314,1.0,10.0,47,0.00,,,-99.99,,2013-05-27 00:42:00,
2013-05-26 20:52:00,55.0,36.0,-100.00,NW,307,0.0,10.0,50,0.00,,,-99.99,,2013-05-27 00:52:00,
2013-05-26 21:01:00,56.0,37.0,-100.00,NW,309,0.0,10.0,51,0.00,,,-99.99,,2013-05-27 01:01:00,
2013-05-26 21:11:00,55.0,37.0,-100.00,West,279,1.0,10.0,55,0.00,,,-99.99,,2013-05-27 01:11:00,
2013-05-26 21:22:00,55.0,37.0,-100.00,West,266,1.0,10.0,56,0.00,,,-99.99,,2013-05-27 01:22:00,
2013-05-26 21:32:00,54.0,39.0,-100.00,West,279,0.0,10.0,59,0.00,,,-99.99,,2013-05-27 01:32:00,
2013-05-26 21:42:00,54.0,39.0,-100.00,WNW,293,1.0,10.0,60,0.00,,,-99.99,,2013-05-27 01:42:00,
2013-05-26 21:52:00,52.0,39.0,-100.00,WSW,245,1.0,10.0,64,0.00,,,-99.99,,2013-05-27 01:52:00,
2013-05-26 22:02:00,51.0,39.0,-100.00,WSW,258,1.0,10.0,69,0.00,,,-99.99,,2013-05-27 02:02:00,
2013-05-26 22:11:00,50.0,41.0,-100.00,West,261,0.0,10.0,72,0.00,,,-99.99,,2013-05-27 02:11:00,
2013-05-26 22:22:00,50.0,39.0,-100.00,West,259,1.0,10.0,72,0.00,,,-99.99,,2013-05-27 02:22:00,
2013-05-26 22:32:00,49.0,41.0,-100.00,WSW,238,0.0,10.0,75,0.00,,,-99.99,,2013-05-27 02:32:00,
2013-05-26 22:42:00,48.0,39.0,-100.00,SW,214,1.0,10.0,76,0.00,,,-99.99,,2013-05-27 02:42:00,
2013-05-26 22:52:00,49.0,41.0,-100.00,WSW,238,0.0,10.0,76,0.00,,,-99.99,,2013-05-27 02:52:00,
2013-05-26 23:02:00,48.0,39.0,-100.00,West,265,1.0,10.0,75,0.00,,,-99.99,,2013-05-27 03:02:00,
2013-05-26 23:11:00,49.0,41.0,-100.00,SSW,213,1.0,10.0,75,0.00,,,-99.99,,2013-05-27 03:11:00,
2013-05-26 23:21:00,48.0,39.0,-100.00,WSW,245,0.0,10.0,76,0.00,,,-99.99,,2013-05-27 03:21:00,
2013-05-26 23:33:00,49.0,41.0,-100.00,WSW,255,1.0,10.0,76,0.00,,,-99.99,,2013-05-27 03:33:00,
2013-05-26 23:43:00,48.0,41.0,-100.00,WSW,251,1.0,10.0,77,0.00,,,-99.99,,2013-05-27 03:43:00,
2013-05-26 23:53:00,47.0,39.0,-100.00,SW,228,0.0,10.0,77,0.00,,,-99.99,,2013-05-27 03:53:00,